createdAt,value
2023-04-07T00:01:16.645Z,73
2023-04-07T00:07:16.643Z,74
2023-04-07T00:10:16.646Z,74
2023-04-07T00:13:16.643Z,74
2023-04-07T00:16:16.689Z,74
2023-04-07T00:19:16.636Z,74
2023-04-07T00:22:16.656Z,74
2023-04-07T00:25:16.641Z,74
2023-04-07T00:28:16.637Z,74
2023-04-07T00:31:16.672Z,74
2023-04-07T00:34:16.646Z,74
2023-04-07T00:37:16.645Z,74
2023-04-07T00:40:16.634Z,75
2023-04-07T00:43:16.650Z,75
2023-04-07T00:46:16.670Z,75
2023-04-07T00:49:16.653Z,75
2023-04-07T00:52:16.673Z,75
2023-04-07T00:55:16.638Z,75
2023-04-07T00:58:16.637Z,75
2023-04-07T01:01:16.646Z,75
2023-04-07T01:04:16.734Z,75
2023-04-07T01:07:16.621Z,75
2023-04-07T01:10:16.642Z,75
2023-04-07T01:13:16.628Z,75
2023-04-07T01:16:16.639Z,75
2023-04-07T01:19:16.625Z,75
2023-04-07T01:22:16.622Z,75
2023-04-07T01:25:16.612Z,75
2023-04-07T01:28:16.618Z,75
2023-04-07T01:31:16.635Z,75
2023-04-07T01:34:16.616Z,75
2023-04-07T01:37:16.650Z,75
2023-04-07T01:40:16.614Z,75
2023-04-07T01:43:16.596Z,75
2023-04-07T01:46:16.611Z,75
2023-04-07T01:49:16.636Z,75
2023-04-07T01:52:16.623Z,75
2023-04-07T01:55:16.613Z,75
2023-04-07T01:58:16.624Z,75
2023-04-07T02:01:16.640Z,75
2023-04-07T02:04:16.624Z,75
2023-04-07T02:07:16.617Z,75
2023-04-07T02:10:16.613Z,75
2023-04-07T02:13:16.614Z,75
2023-04-07T02:16:16.628Z,75
2023-04-07T02:19:16.678Z,75
2023-04-07T02:22:16.617Z,75
2023-04-07T02:25:16.614Z,75
2023-04-07T02:28:16.590Z,75
2023-04-07T02:31:16.644Z,75
2023-04-07T02:34:16.636Z,75
2023-04-07T02:37:16.591Z,76
2023-04-07T02:40:16.608Z,76
2023-04-07T02:43:16.594Z,76
2023-04-07T02:46:16.770Z,76
2023-04-07T02:49:16.604Z,76
2023-04-07T02:52:16.617Z,76
2023-04-07T02:55:16.581Z,76
2023-04-07T02:58:16.583Z,76
2023-04-07T03:01:16.625Z,76
2023-04-07T03:04:16.655Z,76
2023-04-07T03:07:16.595Z,76
2023-04-07T03:10:16.588Z,76
2023-04-07T03:13:16.603Z,76
2023-04-07T03:16:16.748Z,76
2023-04-07T03:19:16.579Z,76
2023-04-07T03:22:16.591Z,76
2023-04-07T03:25:16.606Z,76
2023-04-07T03:28:16.587Z,76
2023-04-07T03:31:16.602Z,76
2023-04-07T03:34:16.590Z,76
2023-04-07T03:37:16.597Z,76
2023-04-07T03:40:16.610Z,76
2023-04-07T03:43:16.574Z,76
2023-04-07T03:46:16.615Z,76
2023-04-07T03:49:16.578Z,76
2023-04-07T03:52:16.591Z,76
2023-04-07T03:55:16.582Z,76
2023-04-07T03:58:16.584Z,76
2023-04-07T04:01:16.580Z,76
2023-04-07T04:04:16.776Z,76
2023-04-07T04:07:16.569Z,76
2023-04-07T04:10:16.595Z,76
2023-04-07T04:13:16.592Z,76
2023-04-07T04:16:16.630Z,76
2023-04-07T04:19:16.583Z,77
2023-04-07T04:22:16.593Z,76
2023-04-07T04:25:16.589Z,76
2023-04-07T04:28:16.592Z,76
2023-04-07T04:31:16.632Z,77
2023-04-07T04:34:16.579Z,77
2023-04-07T04:37:16.590Z,77
2023-04-07T04:40:16.591Z,77
2023-04-07T04:43:16.574Z,77
2023-04-07T04:46:16.586Z,77
2023-04-07T04:49:16.571Z,77
2023-04-07T04:52:16.573Z,77
2023-04-07T04:55:16.566Z,77
2023-04-07T04:58:16.573Z,77
2023-04-07T05:01:16.619Z,77
2023-04-07T05:04:16.747Z,77
2023-04-07T05:07:16.574Z,77
2023-04-07T05:13:16.603Z,77
2023-04-07T05:16:16.607Z,77
2023-04-07T05:19:16.571Z,77
2023-04-07T05:22:16.557Z,77
2023-04-07T05:25:16.588Z,77
2023-04-07T05:28:16.555Z,77
2023-04-07T05:31:16.582Z,77
2023-04-07T05:34:16.554Z,77
2023-04-07T05:37:16.563Z,77
2023-04-07T05:40:16.573Z,77
2023-04-07T05:43:16.546Z,77
2023-04-07T05:46:16.611Z,77
2023-04-07T05:49:19.873Z,77
2023-04-07T05:52:16.550Z,77
2023-04-07T05:55:16.566Z,77
2023-04-07T06:01:16.565Z,77
2023-04-07T06:04:16.550Z,77
2023-04-07T06:07:16.538Z,78
2023-04-07T06:10:16.558Z,78
2023-04-07T06:13:16.569Z,78
2023-04-07T06:16:18.174Z,78
2023-04-07T06:19:16.594Z,78
2023-04-07T06:22:16.533Z,78
2023-04-07T06:25:16.551Z,78
2023-04-07T06:28:16.548Z,78
2023-04-07T06:31:16.582Z,78
2023-04-07T06:34:16.548Z,78
2023-04-07T06:37:16.545Z,78
2023-04-07T06:40:16.546Z,78
2023-04-07T06:43:16.810Z,78
2023-04-07T06:46:16.609Z,78
2023-04-07T06:49:16.544Z,78
2023-04-07T06:52:16.534Z,78
2023-04-07T06:55:16.575Z,78
2023-04-07T06:58:16.528Z,78
2023-04-07T07:01:16.545Z,78
2023-04-07T07:04:16.577Z,78
2023-04-07T07:07:16.665Z,78
2023-04-07T07:13:16.521Z,78
2023-04-07T07:16:16.553Z,78
2023-04-07T07:22:16.538Z,78
2023-04-07T07:25:16.527Z,78
2023-04-07T07:28:16.526Z,78
2023-04-07T07:31:16.574Z,79
2023-04-07T07:34:16.526Z,79
2023-04-07T07:37:16.524Z,79
2023-04-07T07:40:16.521Z,79
2023-04-07T07:43:16.525Z,79
2023-04-07T07:46:16.567Z,79
2023-04-07T07:49:16.508Z,79
2023-04-07T07:52:16.545Z,79
2023-04-07T07:55:16.538Z,79
2023-04-07T07:58:16.505Z,79
2023-04-07T08:01:16.528Z,79
2023-04-07T08:04:16.540Z,79
2023-04-07T08:07:16.502Z,79
2023-04-07T08:10:16.510Z,79
2023-04-07T08:13:16.506Z,79
2023-04-07T08:16:16.606Z,79
2023-04-07T08:19:16.509Z,79
2023-04-07T08:22:16.512Z,79
2023-04-07T08:25:16.519Z,79
2023-04-07T08:28:16.504Z,79
2023-04-07T08:31:16.531Z,79
2023-04-07T08:34:16.499Z,79
2023-04-07T08:37:16.499Z,79
2023-04-07T08:40:16.501Z,79
2023-04-07T08:43:16.497Z,79
2023-04-07T08:46:16.507Z,79
2023-04-07T08:49:16.490Z,79
2023-04-07T08:52:16.498Z,79
2023-04-07T08:55:16.507Z,79
2023-04-07T08:58:16.493Z,79
2023-04-07T09:01:16.545Z,79
2023-04-07T09:04:16.603Z,79
2023-04-07T09:07:16.496Z,79
2023-04-07T09:10:16.493Z,79
2023-04-07T09:13:16.488Z,79
2023-04-07T09:16:16.523Z,79
2023-04-07T09:19:16.483Z,79
2023-04-07T09:22:16.484Z,79
2023-04-07T09:25:16.497Z,79
2023-04-07T09:28:16.482Z,79
2023-04-07T09:31:16.494Z,79
2023-04-07T09:34:16.482Z,79
2023-04-07T09:37:16.477Z,79
2023-04-07T09:40:16.493Z,79
2023-04-07T09:43:16.492Z,79
2023-04-07T09:46:16.562Z,79
2023-04-07T09:49:16.508Z,79
2023-04-07T09:52:16.493Z,79
2023-04-07T09:55:16.494Z,79
2023-04-07T09:58:16.495Z,79
2023-04-07T10:01:16.514Z,79
2023-04-07T10:04:16.528Z,79
2023-04-07T10:07:16.477Z,79
2023-04-07T10:10:16.487Z,79
2023-04-07T10:13:16.470Z,79
2023-04-07T10:16:16.506Z,79
2023-04-07T10:19:16.478Z,79
2023-04-07T10:22:16.477Z,79
2023-04-07T10:28:16.469Z,79
2023-04-07T10:31:16.488Z,79
2023-04-07T10:34:16.466Z,79
2023-04-07T10:37:16.486Z,79
2023-04-07T10:40:16.488Z,79
2023-04-07T10:43:16.459Z,79
2023-04-07T10:46:16.485Z,79
2023-04-07T10:49:18.530Z,79
2023-04-07T10:52:16.470Z,79
2023-04-07T10:55:16.473Z,79
2023-04-07T10:58:16.458Z,78
2023-04-07T11:01:16.525Z,78
2023-04-07T11:04:16.492Z,78
2023-04-07T11:07:16.512Z,78
2023-04-07T11:10:16.546Z,78
2023-04-07T11:13:16.451Z,79
2023-04-07T11:16:16.533Z,79
2023-04-07T11:19:16.491Z,79
2023-04-07T11:22:26.658Z,79
2023-04-07T11:25:16.492Z,79
2023-04-07T11:28:16.452Z,79
2023-04-07T11:31:16.491Z,79
2023-04-07T11:34:16.456Z,79
2023-04-07T11:37:16.455Z,79
2023-04-07T11:40:16.452Z,79
2023-04-07T11:43:16.441Z,79
2023-04-07T11:46:16.493Z,79
2023-04-07T11:49:16.444Z,79
2023-04-07T11:52:16.466Z,79
2023-04-07T11:55:16.440Z,79
2023-04-07T11:58:16.443Z,79
2023-04-07T12:01:16.442Z,79
2023-04-07T12:04:16.549Z,79
2023-04-07T12:07:16.445Z,79
2023-04-07T12:10:16.435Z,79
2023-04-07T12:13:16.427Z,79
2023-04-07T12:16:16.471Z,79
2023-04-07T12:19:16.433Z,79
2023-04-07T12:22:16.438Z,79
2023-04-07T12:25:16.428Z,79
2023-04-07T12:28:16.444Z,79
2023-04-07T12:31:16.423Z,80
2023-04-07T12:34:16.426Z,80
2023-04-07T12:37:16.423Z,80
2023-04-07T12:40:16.421Z,80
2023-04-07T12:43:16.420Z,80
2023-04-07T12:46:16.460Z,80
2023-04-07T12:49:16.415Z,80
2023-04-07T12:52:16.419Z,80
2023-04-07T12:55:16.420Z,80
2023-04-07T12:58:16.412Z,80
2023-04-07T13:01:16.479Z,80
2023-04-07T13:04:16.456Z,80
2023-04-07T13:07:16.448Z,80
2023-04-07T13:10:16.406Z,80
2023-04-07T13:13:16.407Z,80
2023-04-07T13:16:16.454Z,80
2023-04-07T13:19:16.412Z,80
2023-04-07T13:22:18.391Z,80
2023-04-07T13:28:16.403Z,80
2023-04-07T13:31:16.630Z,80
2023-04-07T13:37:16.412Z,80
2023-04-07T13:40:16.415Z,80
2023-04-07T13:43:16.440Z,80
2023-04-07T13:46:26.999Z,80
2023-04-07T13:49:16.409Z,80
2023-04-07T13:52:16.413Z,80
2023-04-07T13:55:16.408Z,80
2023-04-07T13:58:16.406Z,80
2023-04-07T14:01:16.417Z,80
2023-04-07T14:04:16.484Z,80
2023-04-07T14:07:16.401Z,80
2023-04-07T14:10:16.405Z,80
2023-04-07T14:13:16.399Z,80
2023-04-07T14:16:16.422Z,79
2023-04-07T14:19:16.394Z,80
2023-04-07T14:22:16.394Z,80
2023-04-07T14:25:16.415Z,80
2023-04-07T14:28:16.391Z,80
2023-04-07T14:31:16.413Z,80
2023-04-07T14:34:16.395Z,80
2023-04-07T14:37:16.389Z,80
2023-04-07T14:40:16.382Z,80
2023-04-07T14:43:16.383Z,80
2023-04-07T14:46:16.487Z,80
2023-04-07T14:49:16.387Z,80
2023-04-07T14:55:16.388Z,80
2023-04-07T14:58:16.384Z,80
2023-04-07T15:01:16.441Z,80
2023-04-07T15:04:16.524Z,80
2023-04-07T15:07:16.387Z,80
2023-04-07T15:10:16.415Z,80
2023-04-07T15:13:16.394Z,80
2023-04-07T15:16:16.412Z,80
2023-04-07T15:19:16.386Z,80
2023-04-07T15:22:16.380Z,80
2023-04-07T15:25:16.380Z,80
2023-04-07T15:28:16.382Z,80
2023-04-07T15:31:16.452Z,80
2023-04-07T15:34:16.372Z,80
2023-04-07T15:37:16.396Z,80
2023-04-07T15:40:16.371Z,80
2023-04-07T15:43:16.366Z,80
2023-04-07T15:46:16.446Z,80
2023-04-07T15:49:16.363Z,80
2023-04-07T15:52:16.363Z,80
2023-04-07T15:55:16.368Z,80
2023-04-07T15:58:16.358Z,80
2023-04-07T16:01:16.463Z,80
2023-04-07T16:04:16.454Z,80
2023-04-07T16:07:16.340Z,80
2023-04-07T16:10:16.356Z,80
2023-04-07T16:13:16.362Z,80
2023-04-07T16:16:16.371Z,80
2023-04-07T16:19:16.352Z,80
2023-04-07T16:22:16.341Z,80
2023-04-07T16:28:16.341Z,80
2023-04-07T16:31:16.343Z,80
2023-04-07T16:34:16.341Z,80
2023-04-07T16:37:16.344Z,80
2023-04-07T16:40:16.337Z,80
2023-04-07T16:43:16.338Z,80
2023-04-07T16:49:16.353Z,80
2023-04-07T16:52:16.522Z,80
2023-04-07T16:55:16.350Z,80
2023-04-07T16:58:16.347Z,80
2023-04-07T17:01:16.373Z,80
2023-04-07T17:04:16.384Z,80
2023-04-07T17:07:16.322Z,80
2023-04-07T17:10:16.327Z,80
2023-04-07T17:13:16.320Z,80
2023-04-07T17:16:16.375Z,80
2023-04-07T17:19:16.318Z,80
2023-04-07T17:22:16.319Z,80
2023-04-07T17:25:17.791Z,80
2023-04-07T17:28:16.313Z,80
2023-04-07T17:31:16.346Z,80
2023-04-07T17:34:16.303Z,80
2023-04-07T17:37:16.301Z,80
2023-04-07T17:40:16.303Z,80
2023-04-07T17:43:16.311Z,80
2023-04-07T17:46:16.316Z,80
2023-04-07T17:49:16.302Z,80
2023-04-07T17:52:16.306Z,80
2023-04-07T17:55:16.304Z,80
2023-04-07T17:58:16.308Z,80
2023-04-07T18:01:16.336Z,81
2023-04-07T18:04:16.424Z,81
2023-04-07T18:07:16.292Z,81
2023-04-07T18:10:16.299Z,81
2023-04-07T18:13:16.295Z,81
2023-04-07T18:16:16.330Z,81
2023-04-07T18:19:16.282Z,81
2023-04-07T18:22:16.307Z,81
2023-04-07T18:25:16.292Z,81
2023-04-07T18:28:16.291Z,81
2023-04-07T18:31:16.369Z,81
2023-04-07T18:34:16.280Z,81
2023-04-07T18:40:16.447Z,81
2023-04-07T18:43:17.355Z,81
2023-04-07T18:46:16.343Z,81
2023-04-07T18:49:16.286Z,81
2023-04-07T18:52:16.278Z,81
2023-04-07T18:55:16.279Z,81
2023-04-07T18:58:16.317Z,81
2023-04-07T19:01:16.283Z,81
2023-04-07T19:04:16.289Z,81
2023-04-07T19:07:16.288Z,81
2023-04-07T19:10:16.295Z,81
2023-04-07T19:13:16.277Z,81
2023-04-07T19:16:16.314Z,81
2023-04-07T19:22:16.282Z,82
2023-04-07T19:25:16.269Z,82
2023-04-07T19:28:16.287Z,82
2023-04-07T19:31:16.290Z,82
2023-04-07T19:34:16.268Z,82
2023-04-07T19:37:16.279Z,82
2023-04-07T19:40:16.270Z,82
2023-04-07T19:43:16.262Z,82
2023-04-07T19:46:16.296Z,82
2023-04-07T19:49:16.287Z,82
2023-04-07T19:52:16.282Z,82
2023-04-07T19:55:16.284Z,82
2023-04-07T19:58:16.262Z,82
2023-04-07T20:01:16.284Z,82
2023-04-07T20:04:16.313Z,82
2023-04-07T20:07:16.266Z,82
2023-04-07T20:10:16.274Z,82
2023-04-07T20:13:16.276Z,82
2023-04-07T20:16:16.319Z,82
2023-04-07T20:19:16.271Z,82
2023-04-07T20:22:16.278Z,82
2023-04-07T20:25:16.273Z,82
2023-04-07T20:28:16.256Z,82
2023-04-07T20:31:16.293Z,82
2023-04-07T20:34:16.252Z,82
2023-04-07T20:37:16.264Z,82
2023-04-07T20:40:16.262Z,82
2023-04-07T20:43:16.287Z,82
2023-04-07T20:46:16.312Z,82
2023-04-07T20:49:16.243Z,82
2023-04-07T20:52:16.251Z,82
2023-04-07T20:55:16.301Z,82
2023-04-07T20:58:16.242Z,82
2023-04-07T21:01:16.282Z,82
2023-04-07T21:04:16.283Z,82
2023-04-07T21:07:16.259Z,82
2023-04-07T21:13:16.231Z,82
2023-04-07T21:16:16.314Z,82
2023-04-07T21:19:16.246Z,82
2023-04-07T21:22:16.238Z,82
2023-04-07T21:25:16.243Z,82
2023-04-07T21:28:16.250Z,82
2023-04-07T21:31:16.281Z,82
2023-04-07T21:34:16.240Z,82
2023-04-07T21:37:16.241Z,82
2023-04-07T21:40:16.237Z,83
2023-04-07T21:43:16.230Z,83
2023-04-07T21:46:16.279Z,83
2023-04-07T21:49:16.231Z,83
2023-04-07T21:52:16.225Z,83
2023-04-07T21:55:16.230Z,83
2023-04-07T21:58:16.225Z,83
2023-04-07T22:01:16.283Z,83
2023-04-07T22:04:16.278Z,83
2023-04-07T22:07:16.255Z,83
2023-04-07T22:10:16.234Z,83
2023-04-07T22:13:16.223Z,83
2023-04-07T22:16:16.232Z,83
2023-04-07T22:19:16.230Z,83
2023-04-07T22:22:16.227Z,83
2023-04-07T22:25:16.216Z,83
2023-04-07T22:28:16.225Z,83
2023-04-07T22:31:16.213Z,83
2023-04-07T22:34:16.216Z,83
2023-04-07T22:37:16.213Z,83
2023-04-07T22:40:16.234Z,83
2023-04-07T22:43:16.218Z,83
2023-04-07T22:46:16.216Z,83
2023-04-07T22:49:16.198Z,83
2023-04-07T22:52:16.202Z,83
2023-04-07T22:58:16.212Z,83
2023-04-07T23:01:16.254Z,83
2023-04-07T23:04:16.192Z,83
2023-04-07T23:07:16.200Z,83
2023-04-07T23:10:16.197Z,82
2023-04-07T23:13:16.210Z,82
2023-04-07T23:16:16.203Z,82
2023-04-07T23:19:16.190Z,82
2023-04-07T23:22:16.188Z,82
2023-04-07T23:25:16.182Z,82
2023-04-07T23:28:16.191Z,82
2023-04-07T23:31:16.201Z,82
2023-04-07T23:34:16.182Z,82
2023-04-07T23:37:16.205Z,82
2023-04-07T23:40:16.201Z,82
2023-04-07T23:43:16.206Z,82
2023-04-07T23:46:16.231Z,82
2023-04-07T23:49:16.193Z,82
2023-04-07T23:52:16.194Z,82
2023-04-07T23:55:16.180Z,82
2023-04-07T23:58:16.190Z,82
